Time;durP1;ratioP1;P1;durP2;ratioP2;P2;SDS_P1;SDS_P2;PMS_P1;PMS_P2;Temp;Humidity;BMP_temperature;BMP_pressure;BME280_temperature;BME280_humidity;BME280_pressure;Samples;Min_cycle;Max_cycle;Signal;HPM_P1;HPM_P2
2023/06/28 00:01:48;;;;;;;7.10;2.13;;;;;;;;;;5114644;28;20039;-72
2023/06/28 00:04:14;;;;;;;6.05;2.90;;;;;;;;;;5096582;28;20032;-71
2023/06/28 00:06:41;;;;;;;4.40;2.38;;;;;;;;;;5096987;28;20032;-71
2023/06/28 00:09:07;;;;;;;8.20;2.50;;;;;;;;;;5115401;28;20026;-71
2023/06/28 00:11:33;;;;;;;6.53;2.40;;;;;;;;;;5115072;28;20041;-71
2023/06/28 00:14:00;;;;;;;6.05;2.13;;;;;;;;;;5114881;28;20391;-71
2023/06/28 00:16:26;;;;;;;5.65;2.50;;;;;;;;;;5114792;28;20030;-71
2023/06/28 00:18:52;;;;;;;3.28;2.17;;;;;;;;;;5114928;28;20418;-71
2023/06/28 00:21:18;;;;;;;3.53;2.10;;;;;;;;;;5114909;28;20035;-71
2023/06/28 00:23:45;;;;;;;7.20;2.30;;;;;;;;;;5114952;28;20023;-71
2023/06/28 00:26:11;;;;;;;5.47;2.38;;;;;;;;;;5114779;28;20499;-71
2023/06/28 00:28:37;;;;;;;4.82;2.30;;;;;;;;;;5114620;28;20556;-70
2023/06/28 00:31:04;;;;;;;5.65;2.15;;;;;;;;;;5114157;28;20036;-71
2023/06/28 00:33:30;;;;;;;4.05;2.28;;;;;;;;;;5114632;28;20032;-71
2023/06/28 00:35:57;;;;;;;4.07;1.95;;;;;;;;;;5096611;28;20019;-71
2023/06/28 00:38:23;;;;;;;9.70;2.28;;;;;;;;;;5114611;28;20028;-71
2023/06/28 00:40:49;;;;;;;5.35;2.42;;;;;;;;;;5114566;28;20111;-71
2023/06/28 00:43:16;;;;;;;5.85;2.05;;;;;;;;;;5114434;28;20031;-71
2023/06/28 00:45:42;;;;;;;4.15;2.08;;;;;;;;;;5114007;28;20431;-71
2023/06/28 00:48:08;;;;;;;2.53;1.88;;;;;;;;;;5114360;28;20053;-71
2023/06/28 00:50:36;;;;;;;4.18;2.08;;;;;;;;;;5114125;28;20028;-71
2023/06/28 00:53:02;;;;;;;4.40;2.08;;;;;;;;;;5114387;28;20372;-71
2023/06/28 00:55:29;;;;;;;4.88;2.58;;;;;;;;;;5114445;28;20031;-71
2023/06/28 00:57:55;;;;;;;6.63;2.13;;;;;;;;;;5114138;28;20026;-71
2023/06/28 01:00:22;;;;;;;5.10;2.22;;;;;;;;;;5114213;28;20033;-71
2023/06/28 01:02:48;;;;;;;2.90;1.85;;;;;;;;;;5095619;28;20034;-71
2023/06/28 01:05:16;;;;;;;8.30;2.10;;;;;;;;;;5113825;28;20383;-71
2023/06/28 01:07:43;;;;;;;7.00;2.40;;;;;;;;;;5114097;28;20380;-71
2023/06/28 01:10:10;;;;;;;12.10;2.10;;;;;;;;;;5113822;28;20026;-71
2023/06/28 01:12:37;;;;;;;5.55;2.50;;;;;;;;;;5113854;28;20020;-71
2023/06/28 01:15:04;;;;;;;3.65;1.83;;;;;;;;;;5112684;28;20029;-71
2023/06/28 01:17:30;;;;;;;3.38;2.08;;;;;;;;;;5113936;28;20069;-71
2023/06/28 01:19:57;;;;;;;7.78;2.40;;;;;;;;;;5113630;28;20480;-71
2023/06/28 01:22:25;;;;;;;4.70;2.15;;;;;;;;;;5113768;28;20061;-71
2023/06/28 01:24:51;;;;;;;6.22;2.10;;;;;;;;;;5113642;28;20019;-71
2023/06/28 01:27:18;;;;;;;3.72;1.95;;;;;;;;;;5113350;28;20027;-71
2023/06/28 01:29:44;;;;;;;4.38;1.98;;;;;;;;;;5113170;28;20019;-71
2023/06/28 01:32:11;;;;;;;4.22;1.92;;;;;;;;;;5094931;28;20511;-71
2023/06/28 01:34:37;;;;;;;5.63;2.17;;;;;;;;;;5113319;28;20046;-71
2023/06/28 01:37:04;;;;;;;7.63;2.60;;;;;;;;;;5113695;28;20034;-71
2023/06/28 01:39:32;;;;;;;4.35;2.00;;;;;;;;;;5113256;28;20421;-71
2023/06/28 01:42:00;;;;;;;8.60;2.67;;;;;;;;;;5113011;28;20044;-71
2023/06/28 01:44:26;;;;;;;4.55;2.10;;;;;;;;;;5113211;28;20011;-71
2023/06/28 01:46:53;;;;;;;6.30;2.20;;;;;;;;;;5113514;28;20023;-71
2023/06/28 01:49:19;;;;;;;7.57;2.40;;;;;;;;;;5113010;28;20023;-71
2023/06/28 01:51:45;;;;;;;4.65;2.33;;;;;;;;;;5113451;28;20027;-71
2023/06/28 01:54:12;;;;;;;5.30;2.45;;;;;;;;;;5113315;28;20037;-71
2023/06/28 01:56:38;;;;;;;8.23;2.53;;;;;;;;;;5113092;28;20026;-71
2023/06/28 01:59:04;;;;;;;6.78;2.33;;;;;;;;;;5112995;28;20096;-71
2023/06/28 02:01:31;;;;;;;5.78;2.30;;;;;;;;;;5112919;28;20038;-71
2023/06/28 02:03:57;;;;;;;6.53;2.20;;;;;;;;;;5113111;28;20061;-71
2023/06/28 02:06:24;;;;;;;6.38;2.38;;;;;;;;;;5112926;28;20019;-71
2023/06/28 02:08:50;;;;;;;7.63;2.30;;;;;;;;;;5112834;28;20019;-71
2023/06/28 02:11:16;;;;;;;4.85;2.15;;;;;;;;;;5112680;28;20027;-72
2023/06/28 02:13:42;;;;;;;7.93;2.17;;;;;;;;;;5113031;28;20027;-71
2023/06/28 02:16:09;;;;;;;5.22;2.10;;;;;;;;;;5112693;28;20476;-71
2023/06/28 02:18:36;;;;;;;4.63;2.55;;;;;;;;;;5112703;28;20035;-71
2023/06/28 02:21:02;;;;;;;5.95;2.38;;;;;;;;;;5113031;28;20053;-71
2023/06/28 02:23:29;;;;;;;3.97;2.30;;;;;;;;;;5112624;28;20031;-71
2023/06/28 02:25:55;;;;;;;7.32;2.28;;;;;;;;;;5112075;28;20034;-71
2023/06/28 02:28:21;;;;;;;4.20;2.10;;;;;;;;;;5112531;28;20379;-71
2023/06/28 02:30:48;;;;;;;6.22;2.67;;;;;;;;;;5112264;28;20519;-71
2023/06/28 02:33:14;;;;;;;2.90;2.20;;;;;;;;;;5112658;28;20028;-71
2023/06/28 02:35:40;;;;;;;4.97;2.30;;;;;;;;;;5112987;28;20015;-71
2023/06/28 02:38:07;;;;;;;6.35;2.63;;;;;;;;;;5112440;28;20410;-71
2023/06/28 02:40:34;;;;;;;4.28;2.17;;;;;;;;;;5112016;28;20027;-71
2023/06/28 02:43:01;;;;;;;4.88;2.45;;;;;;;;;;5112526;28;20028;-71
2023/06/28 02:45:27;;;;;;;4.60;2.30;;;;;;;;;;5112345;28;20480;-71
2023/06/28 02:47:53;;;;;;;5.05;2.45;;;;;;;;;;5112790;28;20027;-71
2023/06/28 02:50:19;;;;;;;7.65;2.00;;;;;;;;;;5112305;28;20028;-71
2023/06/28 02:52:46;;;;;;;4.32;2.28;;;;;;;;;;5112576;28;20031;-71
2023/06/28 02:55:12;;;;;;;5.35;2.47;;;;;;;;;;5111951;28;20031;-71
2023/06/28 02:57:38;;;;;;;3.58;2.20;;;;;;;;;;5112335;28;20032;-71
2023/06/28 03:00:05;;;;;;;6.68;2.50;;;;;;;;;;5112266;28;20038;-72
2023/06/28 03:02:31;;;;;;;5.78;2.10;;;;;;;;;;5112028;28;20036;-71
2023/06/28 03:04:58;;;;;;;6.05;2.33;;;;;;;;;;5112266;28;20026;-71
2023/06/28 03:07:24;;;;;;;4.13;2.03;;;;;;;;;;5112295;28;20023;-71
2023/06/28 03:09:50;;;;;;;6.30;2.22;;;;;;;;;;5112240;28;20046;-71
2023/06/28 03:12:17;;;;;;;7.45;2.75;;;;;;;;;;5112328;28;20028;-71
2023/06/28 03:14:43;;;;;;;6.70;2.60;;;;;;;;;;5112022;28;20028;-71
2023/06/28 03:17:10;;;;;;;3.92;2.08;;;;;;;;;;5112142;28;20429;-71
2023/06/28 03:19:37;;;;;;;3.75;2.10;;;;;;;;;;5112593;28;20023;-71
2023/06/28 03:22:03;;;;;;;3.35;1.85;;;;;;;;;;5112011;28;20035;-71
2023/06/28 03:24:29;;;;;;;3.63;2.40;;;;;;;;;;5111861;28;20026;-71
2023/06/28 03:26:56;;;;;;;5.20;2.35;;;;;;;;;;5111978;28;20020;-71
2023/06/28 03:29:22;;;;;;;7.13;2.45;;;;;;;;;;5111990;28;20016;-71
2023/06/28 03:31:49;;;;;;;5.63;2.38;;;;;;;;;;5111754;28;20039;-71
2023/06/28 03:34:16;;;;;;;5.90;2.70;;;;;;;;;;5112275;28;20196;-71
2023/06/28 03:36:43;;;;;;;5.53;2.40;;;;;;;;;;5111866;28;20032;-71
2023/06/28 03:39:09;;;;;;;4.68;2.45;;;;;;;;;;5113915;28;20068;-71
2023/06/28 03:41:36;;;;;;;8.32;2.63;;;;;;;;;;5097239;28;20042;-71
2023/06/28 03:44:02;;;;;;;7.65;2.72;;;;;;;;;;5115821;28;20024;-71
2023/06/28 03:46:28;;;;;;;7.47;2.33;;;;;;;;;;5097268;28;20506;-71
2023/06/28 03:48:55;;;;;;;3.80;2.30;;;;;;;;;;5115486;28;20504;-71
2023/06/28 03:51:21;;;;;;;5.55;2.60;;;;;;;;;;5115317;28;20067;-71
2023/06/28 03:53:47;;;;;;;11.90;2.78;;;;;;;;;;5114992;28;20030;-71
2023/06/28 03:56:15;;;;;;;6.72;2.58;;;;;;;;;;5115824;28;20049;-71
2023/06/28 03:58:41;;;;;;;6.15;2.20;;;;;;;;;;5115253;28;20442;-71
2023/06/28 04:01:07;;;;;;;6.13;2.22;;;;;;;;;;5115264;28;20018;-71
2023/06/28 04:03:34;;;;;;;5.13;2.63;;;;;;;;;;5115117;28;20506;-71
2023/06/28 04:06:00;;;;;;;4.93;2.40;;;;;;;;;;5096947;28;20484;-71
2023/06/28 04:08:26;;;;;;;5.47;2.72;;;;;;;;;;5114832;28;20023;-71
2023/06/28 04:10:53;;;;;;;6.07;2.47;;;;;;;;;;5096843;28;20035;-71
2023/06/28 04:13:20;;;;;;;6.15;2.35;;;;;;;;;;5115061;28;20027;-71
2023/06/28 04:15:46;;;;;;;5.10;2.47;;;;;;;;;;5115106;28;20032;-71
2023/06/28 04:18:12;;;;;;;5.22;2.20;;;;;;;;;;5114838;28;20049;-71
2023/06/28 04:20:39;;;;;;;8.60;2.80;;;;;;;;;;5114940;28;20064;-71
2023/06/28 04:23:05;;;;;;;5.25;2.30;;;;;;;;;;5114481;28;20035;-71
2023/06/28 04:25:31;;;;;;;5.75;2.40;;;;;;;;;;5115092;28;20023;-71
2023/06/28 04:27:58;;;;;;;6.57;2.58;;;;;;;;;;5114588;28;20035;-71
2023/06/28 04:30:24;;;;;;;4.75;2.25;;;;;;;;;;5115011;28;20039;-71
2023/06/28 04:32:51;;;;;;;7.18;2.70;;;;;;;;;;5114698;28;20016;-71
2023/06/28 04:35:18;;;;;;;8.27;2.47;;;;;;;;;;5114585;28;20449;-71
2023/06/28 04:37:44;;;;;;;5.40;2.13;;;;;;;;;;5114673;28;20018;-71
2023/06/28 04:40:11;;;;;;;4.70;2.10;;;;;;;;;;5114616;28;20020;-71
2023/06/28 04:42:37;;;;;;;6.03;1.95;;;;;;;;;;5114358;28;20041;-71
2023/06/28 04:45:06;;;;;;;6.78;2.50;;;;;;;;;;5114762;28;20036;-71
2023/06/28 04:47:35;;;;;;;4.80;1.90;;;;;;;;;;5114406;28;20426;-71
2023/06/28 04:50:05;;;;;;;3.72;2.10;;;;;;;;;;5114429;28;20020;-71
2023/06/28 04:52:31;;;;;;;4.22;2.30;;;;;;;;;;5113816;28;20035;-71
2023/06/28 04:54:58;;;;;;;5.47;2.00;;;;;;;;;;5096287;28;20034;-71
2023/06/28 04:57:24;;;;;;;8.82;2.60;;;;;;;;;;5114281;28;20023;-71
2023/06/28 04:59:51;;;;;;;11.75;2.45;;;;;;;;;;5114311;28;20019;-71
2023/06/28 05:02:17;;;;;;;5.80;2.00;;;;;;;;;;5114131;28;20038;-71
2023/06/28 05:04:45;;;;;;;5.00;2.33;;;;;;;;;;5113832;28;20023;-71
2023/06/28 05:07:11;;;;;;;4.88;2.08;;;;;;;;;;5113856;28;20026;-71
2023/06/28 05:09:38;;;;;;;7.88;2.17;;;;;;;;;;5114053;28;20030;-71
2023/06/28 05:12:05;;;;;;;5.63;2.33;;;;;;;;;;5114164;28;20018;-71
2023/06/28 05:14:32;;;;;;;7.65;2.47;;;;;;;;;;5114107;28;20027;-71
2023/06/28 05:16:58;;;;;;;9.50;2.45;;;;;;;;;;5114086;28;20057;-71
2023/06/28 05:19:25;;;;;;;6.55;2.20;;;;;;;;;;5113979;28;20023;-71
2023/06/28 05:21:51;;;;;;;4.72;2.42;;;;;;;;;;5113153;28;20084;-71
2023/06/28 05:24:19;;;;;;;4.70;1.95;;;;;;;;;;5113561;28;20476;-71
2023/06/28 05:26:46;;;;;;;5.15;2.60;;;;;;;;;;5113360;28;20050;-71
2023/06/28 05:29:12;;;;;;;6.07;2.53;;;;;;;;;;5113847;28;20020;-71
2023/06/28 05:31:39;;;;;;;5.70;2.25;;;;;;;;;;5095255;28;20036;-71
2023/06/28 05:34:05;;;;;;;5.03;2.30;;;;;;;;;;5095291;28;20493;-71
2023/06/28 05:36:32;;;;;;;12.02;3.08;;;;;;;;;;5113054;28;20030;-71
2023/06/28 05:38:58;;;;;;;7.75;2.20;;;;;;;;;;5113371;28;20492;-71
2023/06/28 05:41:25;;;;;;;4.15;2.30;;;;;;;;;;5095174;28;20040;-71
2023/06/28 05:43:51;;;;;;;10.23;2.00;;;;;;;;;;5113212;28;20019;-71
2023/06/28 05:46:18;;;;;;;5.63;1.90;;;;;;;;;;5113540;28;20027;-71
2023/06/28 05:48:46;;;;;;;5.35;2.25;;;;;;;;;;5113097;28;20031;-71
2023/06/28 05:51:14;;;;;;;6.20;2.53;;;;;;;;;;5113068;28;20031;-72
2023/06/28 05:53:40;;;;;;;5.18;2.28;;;;;;;;;;5113175;28;20468;-71
2023/06/28 05:56:07;;;;;;;10.15;2.30;;;;;;;;;;5113261;28;20020;-71
2023/06/28 05:58:34;;;;;;;7.65;2.15;;;;;;;;;;5113602;28;20024;-71
2023/06/28 06:01:00;;;;;;;5.97;2.20;;;;;;;;;;5094395;28;20023;-71
2023/06/28 06:03:27;;;;;;;8.60;2.08;;;;;;;;;;5112984;28;20036;-72
2023/06/28 06:05:53;;;;;;;9.95;2.47;;;;;;;;;;5113047;28;20024;-71
2023/06/28 06:08:20;;;;;;;9.82;2.53;;;;;;;;;;5112942;28;20032;-71
2023/06/28 06:10:46;;;;;;;12.25;2.80;;;;;;;;;;5108914;28;20080;-71
2023/06/28 06:13:12;;;;;;;6.03;2.70;;;;;;;;;;5111957;28;20028;-71
2023/06/28 06:15:39;;;;;;;6.00;2.03;;;;;;;;;;5112701;28;20072;-71
2023/06/28 06:18:05;;;;;;;10.93;2.65;;;;;;;;;;5111520;28;20023;-71
2023/06/28 06:20:33;;;;;;;6.60;2.40;;;;;;;;;;5111137;28;20034;-70
2023/06/28 06:23:00;;;;;;;10.75;2.30;;;;;;;;;;5112426;28;20027;-71
2023/06/28 06:25:26;;;;;;;4.65;1.85;;;;;;;;;;5112174;28;20297;-68
2023/06/28 06:27:52;;;;;;;3.80;2.38;;;;;;;;;;5110640;28;20024;-71
2023/06/28 06:30:19;;;;;;;6.00;2.50;;;;;;;;;;5126875;27;20406;-70
2023/06/28 06:32:45;;;;;;;6.15;2.47;;;;;;;;;;5111019;28;20027;-70
2023/06/28 06:35:13;;;;;;;5.38;2.35;;;;;;;;;;5112794;28;20364;-71
2023/06/28 06:37:40;;;;;;;8.90;2.42;;;;;;;;;;5112094;28;20031;-70
2023/06/28 06:40:07;;;;;;;6.47;2.22;;;;;;;;;;5114551;28;20542;-71
2023/06/28 06:42:33;;;;;;;5.30;2.40;;;;;;;;;;5112119;28;20036;-70
2023/06/28 06:44:59;;;;;;;5.63;2.20;;;;;;;;;;5093757;28;20026;-71
2023/06/28 06:47:26;;;;;;;6.63;2.63;;;;;;;;;;5111658;28;20046;-70
2023/06/28 06:49:52;;;;;;;5.03;2.50;;;;;;;;;;5112894;28;20027;-71
2023/06/28 06:52:18;;;;;;;9.52;2.38;;;;;;;;;;5130082;28;20019;-71
2023/06/28 06:54:44;;;;;;;8.43;2.30;;;;;;;;;;5129538;28;20356;-71
2023/06/28 06:57:11;;;;;;;6.63;2.40;;;;;;;;;;5120813;28;20036;-71
2023/06/28 06:59:37;;;;;;;9.68;2.30;;;;;;;;;;5111448;28;20027;-71
2023/06/28 07:02:04;;;;;;;9.93;2.47;;;;;;;;;;5110426;28;20031;-72
2023/06/28 07:04:31;;;;;;;10.75;2.42;;;;;;;;;;5111757;28;20027;-72
2023/06/28 07:06:57;;;;;;;8.23;2.45;;;;;;;;;;5111700;28;20031;-72
2023/06/28 07:09:26;;;;;;;8.85;2.50;;;;;;;;;;5111151;28;20045;-71
2023/06/28 07:11:53;;;;;;;6.20;2.08;;;;;;;;;;5111103;28;20031;-71
2023/06/28 07:14:19;;;;;;;9.27;2.13;;;;;;;;;;5114187;28;20028;-72
2023/06/28 07:16:45;;;;;;;4.63;2.22;;;;;;;;;;5113864;27;20024;-72
2023/06/28 07:19:12;;;;;;;3.92;2.30;;;;;;;;;;5115302;28;20428;-71
2023/06/28 07:21:38;;;;;;;7.35;2.13;;;;;;;;;;5114385;27;20398;-72
2023/06/28 07:24:05;;;;;;;5.60;2.17;;;;;;;;;;5115121;28;20039;-72
2023/06/28 07:26:31;;;;;;;6.18;2.20;;;;;;;;;;5119979;27;20023;-72
2023/06/28 07:28:59;;;;;;;6.80;2.45;;;;;;;;;;5113996;28;20387;-72
2023/06/28 07:31:25;;;;;;;4.47;2.17;;;;;;;;;;5113431;28;20039;-72
2023/06/28 07:33:51;;;;;;;8.02;2.00;;;;;;;;;;5114778;28;20019;-72
2023/06/28 07:36:18;;;;;;;5.45;2.08;;;;;;;;;;5115005;28;20383;-72
2023/06/28 07:38:44;;;;;;;7.22;2.38;;;;;;;;;;5114526;28;20030;-72
2023/06/28 07:41:10;;;;;;;7.35;2.17;;;;;;;;;;5114469;28;20031;-72
2023/06/28 07:43:37;;;;;;;3.97;1.80;;;;;;;;;;5114388;28;20038;-72
2023/06/28 07:46:03;;;;;;;7.78;1.98;;;;;;;;;;5096077;28;20041;-72
2023/06/28 07:48:30;;;;;;;8.85;1.92;;;;;;;;;;5112277;28;20023;-71
2023/06/28 07:50:56;;;;;;;5.50;2.13;;;;;;;;;;5114238;27;20024;-71
2023/06/28 07:53:22;;;;;;;5.57;2.00;;;;;;;;;;5113435;28;20027;-71
2023/06/28 07:55:49;;;;;;;9.77;2.38;;;;;;;;;;5114693;27;20020;-72
2023/06/28 07:58:15;;;;;;;2.00;1.55;;;;;;;;;;5114609;28;20521;-72
2023/06/28 08:00:42;;;;;;;12.40;2.30;;;;;;;;;;5113771;28;20023;-71
2023/06/28 08:03:08;;;;;;;8.77;2.15;;;;;;;;;;5114140;28;20058;-72
2023/06/28 08:05:35;;;;;;;4.90;1.88;;;;;;;;;;5113373;28;20022;-72
2023/06/28 08:08:01;;;;;;;10.73;2.65;;;;;;;;;;5094852;28;20390;-71
2023/06/28 08:10:27;;;;;;;6.80;2.55;;;;;;;;;;5114114;28;20028;-72
2023/06/28 08:12:54;;;;;;;6.65;2.47;;;;;;;;;;5114031;27;20026;-71
2023/06/28 08:15:20;;;;;;;2.83;1.92;;;;;;;;;;5113686;28;20402;-71
2023/06/28 08:17:47;;;;;;;5.65;2.22;;;;;;;;;;5114124;28;20040;-73
2023/06/28 08:20:13;;;;;;;6.90;2.00;;;;;;;;;;5112883;28;20449;-72
2023/06/28 08:22:40;;;;;;;7.93;2.13;;;;;;;;;;5112415;27;20043;-73
2023/06/28 08:25:06;;;;;;;5.25;2.20;;;;;;;;;;5113213;28;20020;-72
2023/06/28 08:27:32;;;;;;;9.25;2.60;;;;;;;;;;5115176;27;20513;-73
2023/06/28 08:29:59;;;;;;;9.52;2.30;;;;;;;;;;5116158;27;20475;-72
2023/06/28 08:32:25;;;;;;;4.10;2.15;;;;;;;;;;5115162;27;20024;-73
2023/06/28 08:34:51;;;;;;;5.13;2.22;;;;;;;;;;5112622;28;20034;-72
2023/06/28 08:37:18;;;;;;;3.63;2.55;;;;;;;;;;5112288;27;20027;-73
2023/06/28 08:39:44;;;;;;;4.20;2.60;;;;;;;;;;5113460;28;20027;-73
2023/06/28 08:42:11;;;;;;;4.80;2.55;;;;;;;;;;5115212;27;20043;-73
2023/06/28 08:44:38;;;;;;;3.83;2.38;;;;;;;;;;5112734;28;20027;-73
2023/06/28 08:47:05;;;;;;;5.50;2.20;;;;;;;;;;5113945;27;20038;-74
2023/06/28 08:49:33;;;;;;;8.45;2.50;;;;;;;;;;5113555;28;20019;-72
2023/06/28 08:51:59;;;;;;;7.60;2.90;;;;;;;;;;5113389;28;20483;-73
2023/06/28 08:54:29;;;;;;;4.90;2.53;;;;;;;;;;5095104;28;20024;-72
2023/06/28 08:56:56;;;;;;;9.13;2.63;;;;;;;;;;5112261;27;20361;-73
2023/06/28 08:59:23;;;;;;;4.95;2.88;;;;;;;;;;5111856;28;20493;-73
2023/06/28 09:01:54;;;;;;;5.60;2.65;;;;;;;;;;5112861;28;20035;-73
2023/06/28 09:04:23;;;;;;;3.47;2.58;;;;;;;;;;5113152;28;20032;-72
2023/06/28 09:06:50;;;;;;;8.23;2.70;;;;;;;;;;5120647;27;20015;-69
2023/06/28 09:09:16;;;;;;;4.78;2.70;;;;;;;;;;5133795;27;20035;-69
2023/06/28 09:11:43;;;;;;;5.75;2.60;;;;;;;;;;5115083;27;20027;-68
2023/06/28 09:14:10;;;;;;;7.05;3.10;;;;;;;;;;5114370;27;20491;-69
2023/06/28 09:16:36;;;;;;;6.47;3.95;;;;;;;;;;5115835;27;20039;-69
2023/06/28 09:19:02;;;;;;;8.57;4.18;;;;;;;;;;5133451;27;20023;-68
2023/06/28 09:21:29;;;;;;;7.13;3.47;;;;;;;;;;5127916;27;20026;-68
2023/06/28 09:23:56;;;;;;;5.70;3.78;;;;;;;;;;5095491;28;20035;-68
2023/06/28 09:26:30;;;;;;;12.02;4.60;;;;;;;;;;5111294;27;20499;-68
2023/06/28 09:28:59;;;;;;;10.35;7.53;;;;;;;;;;5116639;27;20031;-69
2023/06/28 09:31:25;;;;;;;10.65;5.85;;;;;;;;;;5111436;27;20096;-68
2023/06/28 09:33:55;;;;;;;12.70;6.35;;;;;;;;;;5110938;28;20028;-69
2023/06/28 09:36:23;;;;;;;8.55;6.35;;;;;;;;;;5110051;27;20552;-68
2023/06/28 09:38:49;;;;;;;12.40;7.68;;;;;;;;;;5112206;28;20028;-68
2023/06/28 09:41:15;;;;;;;14.32;9.45;;;;;;;;;;5112715;27;20023;-72
2023/06/28 09:43:42;;;;;;;13.43;8.85;;;;;;;;;;5114375;27;20495;-72
2023/06/28 09:46:16;;;;;;;16.67;10.02;;;;;;;;;;5111639;28;20028;-73
2023/06/28 09:48:43;;;;;;;18.17;9.63;;;;;;;;;;5132767;27;20149;-72
2023/06/28 09:51:11;;;;;;;18.65;10.55;;;;;;;;;;5125210;27;20491;-72
2023/06/28 09:53:48;;;;;;;13.85;10.15;;;;;;;;;;5092858;28;20032;-73
2023/06/28 09:56:14;;;;;;;17.75;10.85;;;;;;;;;;5111502;28;20032;-72
2023/06/28 09:58:41;;;;;;;13.50;10.43;;;;;;;;;;5112214;28;20014;-72
2023/06/28 10:01:07;;;;;;;14.52;9.88;;;;;;;;;;5112248;28;20024;-72
2023/06/28 10:03:34;;;;;;;12.23;10.15;;;;;;;;;;5111391;28;20046;-73
2023/06/28 10:06:01;;;;;;;13.65;10.10;;;;;;;;;;5111296;28;20020;-72
2023/06/28 10:08:27;;;;;;;15.57;10.20;;;;;;;;;;5111180;28;20517;-72
2023/06/28 10:10:58;;;;;;;18.42;10.00;;;;;;;;;;5111924;28;20391;-72
2023/06/28 10:13:26;;;;;;;14.98;9.45;;;;;;;;;;5128611;27;20022;-72
2023/06/28 10:16:03;;;;;;;14.90;9.30;;;;;;;;;;5131608;27;20025;-72
2023/06/28 10:18:30;;;;;;;14.48;10.70;;;;;;;;;;5130608;27;20090;-72
2023/06/28 10:20:57;;;;;;;13.82;11.10;;;;;;;;;;5132217;27;20027;-72
2023/06/28 10:23:24;;;;;;;15.35;10.82;;;;;;;;;;5131630;27;20038;-72
2023/06/28 10:25:51;;;;;;;13.63;9.23;;;;;;;;;;5131944;27;20020;-72
2023/06/28 10:28:17;;;;;;;13.38;9.55;;;;;;;;;;5112402;27;20563;-72
2023/06/28 10:30:43;;;;;;;10.48;8.65;;;;;;;;;;5111507;28;20042;-72
2023/06/28 10:33:10;;;;;;;14.15;8.98;;;;;;;;;;5111333;28;20024;-73
2023/06/28 10:35:37;;;;;;;13.18;8.23;;;;;;;;;;5112189;28;20028;-73
2023/06/28 10:38:04;;;;;;;10.23;8.25;;;;;;;;;;5111637;28;20479;-72
2023/06/28 10:40:30;;;;;;;12.25;8.38;;;;;;;;;;5111347;28;20042;-73
2023/06/28 10:42:56;;;;;;;11.48;8.55;;;;;;;;;;5110902;28;20407;-73
2023/06/28 10:45:32;;;;;;;11.93;9.25;;;;;;;;;;5111111;28;20072;-73
2023/06/28 10:47:59;;;;;;;11.15;9.23;;;;;;;;;;5112353;28;20032;-73
2023/06/28 10:50:26;;;;;;;14.27;9.25;;;;;;;;;;5097733;28;20050;-73
2023/06/28 10:52:54;;;;;;;14.43;8.18;;;;;;;;;;5116049;28;20024;-73
2023/06/28 10:55:20;;;;;;;12.77;9.00;;;;;;;;;;5115720;28;20027;-72
2023/06/28 10:58:03;;;;;;;11.32;8.60;;;;;;;;;;5115779;28;20479;-73
2023/06/28 11:00:39;;;;;;;11.77;8.07;;;;;;;;;;5089369;28;20373;-73
2023/06/28 11:03:06;;;;;;;11.23;7.50;;;;;;;;;;5115920;28;20030;-72
2023/06/28 11:05:39;;;;;;;14.57;8.45;;;;;;;;;;5115793;28;20028;-73
2023/06/28 11:08:28;;;;;;;20.30;8.88;;;;;;;;;;5115604;28;20228;-73
2023/06/28 11:10:55;;;;;;;13.60;8.35;;;;;;;;;;5114974;28;20035;-72
2023/06/28 11:13:40;;;;;;;15.48;7.70;;;;;;;;;;5115921;28;20030;-72
2023/06/28 11:16:11;;;;;;;9.60;7.57;;;;;;;;;;5115805;28;20027;-73
2023/06/28 11:18:38;;;;;;;10.45;7.38;;;;;;;;;;5115531;28;20448;-72
2023/06/28 11:21:05;;;;;;;10.35;7.25;;;;;;;;;;5114919;28;20019;-73
2023/06/28 11:23:37;;;;;;;16.30;7.93;;;;;;;;;;5115088;28;20407;-73
2023/06/28 11:26:04;;;;;;;10.85;7.75;;;;;;;;;;5115491;28;20008;-72
2023/06/28 11:28:32;;;;;;;12.52;7.72;;;;;;;;;;5115362;28;20030;-72
2023/06/28 11:31:12;;;;;;;9.80;7.60;;;;;;;;;;5115350;28;20040;-73
2023/06/28 11:33:38;;;;;;;11.18;7.65;;;;;;;;;;5115613;28;20024;-72
2023/06/28 11:36:05;;;;;;;11.73;7.93;;;;;;;;;;5112220;28;20396;-73
2023/06/28 11:38:33;;;;;;;11.80;7.85;;;;;;;;;;5112441;28;20034;-73
2023/06/28 11:40:59;;;;;;;9.15;6.75;;;;;;;;;;5113990;28;20015;-72
2023/06/28 11:43:26;;;;;;;9.13;7.03;;;;;;;;;;5115113;28;20039;-73
2023/06/28 11:45:52;;;;;;;12.00;7.80;;;;;;;;;;5115413;28;20034;-73
2023/06/28 11:48:20;;;;;;;10.02;6.63;;;;;;;;;;5114799;28;20524;-72
2023/06/28 11:50:56;;;;;;;11.85;7.15;;;;;;;;;;5113407;28;20028;-73
2023/06/28 11:53:23;;;;;;;9.02;7.15;;;;;;;;;;5113309;28;20019;-73
2023/06/28 11:55:50;;;;;;;10.65;7.82;;;;;;;;;;5115374;27;20030;-73
2023/06/28 11:58:26;;;;;;;10.75;7.28;;;;;;;;;;5105162;28;20039;-72
2023/06/28 12:00:52;;;;;;;13.07;7.15;;;;;;;;;;5114326;27;20016;-72
2023/06/28 12:03:29;;;;;;;10.73;7.40;;;;;;;;;;5114071;27;20031;-73
2023/06/28 12:05:56;;;;;;;9.13;7.05;;;;;;;;;;5114117;28;20035;-72
2023/06/28 12:08:22;;;;;;;8.25;6.80;;;;;;;;;;5114799;28;20066;-72
2023/06/28 12:10:49;;;;;;;9.20;6.72;;;;;;;;;;5114238;27;20020;-73
2023/06/28 12:13:22;;;;;;;7.53;5.82;;;;;;;;;;5114813;27;20502;-72
2023/06/28 12:15:48;;;;;;;7.05;5.30;;;;;;;;;;5112974;28;20024;-73
2023/06/28 12:18:15;;;;;;;10.25;5.88;;;;;;;;;;5113572;27;20020;-72
2023/06/28 12:20:41;;;;;;;8.00;5.43;;;;;;;;;;5112149;28;20429;-72
2023/06/28 12:23:14;;;;;;;14.20;5.43;;;;;;;;;;5112206;28;20038;-73
2023/06/28 12:25:43;;;;;;;7.72;5.75;;;;;;;;;;5112946;28;20387;-72
2023/06/28 12:28:13;;;;;;;7.10;5.70;;;;;;;;;;5093952;28;20024;-71
2023/06/28 12:30:39;;;;;;;8.05;6.38;;;;;;;;;;5113009;28;20050;-72
2023/06/28 12:33:06;;;;;;;9.30;6.38;;;;;;;;;;5113273;27;20423;-72
2023/06/28 12:35:33;;;;;;;9.07;6.53;;;;;;;;;;5113270;28;20031;-72
2023/06/28 12:38:01;;;;;;;9.65;6.10;;;;;;;;;;5115737;27;20032;-71
2023/06/28 12:40:35;;;;;;;11.18;6.22;;;;;;;;;;5112905;28;20038;-72
2023/06/28 12:43:08;;;;;;;9.05;5.47;;;;;;;;;;5118942;27;20040;-73
2023/06/28 12:45:34;;;;;;;8.15;5.28;;;;;;;;;;5113197;28;20027;-72
2023/06/28 12:48:00;;;;;;;9.20;5.60;;;;;;;;;;5112950;28;20509;-72
2023/06/28 12:50:27;;;;;;;8.27;5.07;;;;;;;;;;5112690;28;20034;-73
2023/06/28 12:52:53;;;;;;;7.25;5.88;;;;;;;;;;5129231;27;20027;-72
2023/06/28 12:55:19;;;;;;;7.22;5.95;;;;;;;;;;5134168;27;20390;-73
2023/06/28 12:57:45;;;;;;;8.85;5.82;;;;;;;;;;5115485;27;20036;-73
2023/06/28 13:00:12;;;;;;;11.82;6.15;;;;;;;;;;5133630;27;20023;-72
2023/06/28 13:02:39;;;;;;;8.60;6.05;;;;;;;;;;5133193;27;20514;-73
2023/06/28 13:05:06;;;;;;;12.85;5.55;;;;;;;;;;5133229;27;20019;-72
2023/06/28 13:07:32;;;;;;;7.38;5.80;;;;;;;;;;5133470;27;20439;-72
2023/06/28 13:09:58;;;;;;;8.73;5.90;;;;;;;;;;5134211;27;20026;-73
2023/06/28 13:12:25;;;;;;;6.50;5.65;;;;;;;;;;5132765;27;20025;-73
2023/06/28 13:14:51;;;;;;;10.45;6.13;;;;;;;;;;5133956;27;20023;-72
2023/06/28 13:17:17;;;;;;;7.75;5.85;;;;;;;;;;5132956;27;20023;-73
2023/06/28 13:19:43;;;;;;;8.20;5.97;;;;;;;;;;5133130;27;20019;-72
2023/06/28 13:22:10;;;;;;;9.05;6.05;;;;;;;;;;5132186;27;20035;-73
2023/06/28 13:24:36;;;;;;;9.57;6.13;;;;;;;;;;5133903;27;20031;-72
2023/06/28 13:27:03;;;;;;;9.68;6.10;;;;;;;;;;5124217;27;20054;-72
2023/06/28 13:29:29;;;;;;;11.68;6.25;;;;;;;;;;5112845;28;20028;-73
2023/06/28 13:31:55;;;;;;;9.52;6.18;;;;;;;;;;5112252;27;20036;-72
2023/06/28 13:34:21;;;;;;;7.60;5.80;;;;;;;;;;5093869;28;20031;-73
2023/06/28 13:36:48;;;;;;;7.85;5.72;;;;;;;;;;5111910;28;20458;-72
2023/06/28 13:39:14;;;;;;;6.55;5.28;;;;;;;;;;5112076;28;20028;-72
2023/06/28 13:41:44;;;;;;;11.02;6.45;;;;;;;;;;5112989;28;20115;-72
2023/06/28 13:44:11;;;;;;;8.63;5.78;;;;;;;;;;5111616;28;20024;-73
2023/06/28 13:46:37;;;;;;;8.13;5.90;;;;;;;;;;5113613;27;20479;-73
2023/06/28 13:49:03;;;;;;;8.77;5.90;;;;;;;;;;5112107;28;20031;-73
2023/06/28 13:51:30;;;;;;;14.90;6.20;;;;;;;;;;5112286;28;20020;-72
2023/06/28 13:54:03;;;;;;;8.15;6.53;;;;;;;;;;5112434;28;20024;-72
2023/06/28 13:56:32;;;;;;;9.68;6.13;;;;;;;;;;5112562;27;20015;-73
2023/06/28 13:58:58;;;;;;;8.07;5.90;;;;;;;;;;5112081;28;20773;-73
2023/06/28 14:01:24;;;;;;;9.50;5.95;;;;;;;;;;5110573;28;20035;-73
2023/06/28 14:03:51;;;;;;;11.00;6.20;;;;;;;;;;5111160;28;20034;-73
2023/06/28 14:06:17;;;;;;;8.68;6.18;;;;;;;;;;5112575;28;20040;-73
2023/06/28 14:08:44;;;;;;;8.30;5.93;;;;;;;;;;5112259;28;20019;-73
2023/06/28 14:11:10;;;;;;;9.93;6.38;;;;;;;;;;5111985;28;20030;-73
2023/06/28 14:13:36;;;;;;;19.33;5.88;;;;;;;;;;5112305;28;20026;-73
2023/06/28 14:16:02;;;;;;;7.25;5.25;;;;;;;;;;5111931;28;20024;-73
2023/06/28 14:18:29;;;;;;;8.40;5.65;;;;;;;;;;5111686;28;20030;-73
2023/06/28 14:20:55;;;;;;;8.77;5.85;;;;;;;;;;5112421;28;20031;-72
2023/06/28 14:23:22;;;;;;;7.95;5.53;;;;;;;;;;5111794;28;20040;-73
2023/06/28 14:25:48;;;;;;;7.53;6.05;;;;;;;;;;5112041;28;20027;-74
2023/06/28 14:28:14;;;;;;;11.70;6.28;;;;;;;;;;5112285;28;20023;-72
2023/06/28 14:30:41;;;;;;;11.70;6.60;;;;;;;;;;5111435;28;20048;-72
2023/06/28 14:33:08;;;;;;;9.20;6.22;;;;;;;;;;5110640;28;20048;-72
2023/06/28 14:35:34;;;;;;;11.07;6.50;;;;;;;;;;5112339;28;20020;-73
2023/06/28 14:38:03;;;;;;;8.75;6.53;;;;;;;;;;5112297;28;20015;-73